Hanna, Utah
Current Conditions -  °F | °C
As of 1:35 PM on Saturday 20 Dec 2014 (Local Time) from K36U Reporting Station
Unknown Precip Unknown Precip  
Wind Chill: 29°   Ceiling: 1500
Heat Index: 36°   Visibility: 7mi
Dew Point: 32°   Wind: 9mph
Humidity: 87%   Direction: 220°SW
Pressure: 30.06"   Gusts: NA
Location:  40.4°N, 110.77°W
Report Text: K36U 202035Z AUTO 22008KT 7SM UP SCT010 OVC015 02/00 A3006 RMK AO2
Loading
Personal Weather Stations






























Interactive Weather Map New forecast layout! Learn more

10-Day Weather Forecast

Advertisements
Track Severe Weather on mobile